sensor_id;sensor_type;location;lat;lon;timestamp;P1;P4;P2;P0;N10;N4;N25;N1;N05;TS
43196;SPS30;28816;49.852;18.282;2023-12-28T00:01:52;6.750000;;6.650000;6.370000;;;;;;
43196;SPS30;28816;49.852;18.282;2023-12-28T00:06:53;8.710000;;8.670000;8.230000;;;;;;
43196;SPS30;28816;49.852;18.282;2023-12-28T00:11:56;8.320000;;8.290000;7.770000;;;;;;
43196;SPS30;28816;49.852;18.282;2023-12-28T00:16:58;7.620000;;7.610000;7.020000;;;;;;
43196;SPS30;28816;49.852;18.282;2023-12-28T00:22:00;7.400000;;7.370000;6.940000;;;;;;
43196;SPS30;28816;49.852;18.282;2023-12-28T00:27:02;7.300000;;7.250000;6.960000;;;;;;
43196;SPS30;28816;49.852;18.282;2023-12-28T00:32:04;6.280000;;6.220000;5.980000;;;;;;
43196;SPS30;28816;49.852;18.282;2023-12-28T00:37:06;7.690000;;7.650000;7.180000;;;;;;
43196;SPS30;28816;49.852;18.282;2023-12-28T00:42:08;9.300000;;9.250000;8.770000;;;;;;
43196;SPS30;28816;49.852;18.282;2023-12-28T00:47:10;8.950000;;8.930000;8.360000;;;;;;
43196;SPS30;28816;49.852;18.282;2023-12-28T00:52:12;8.720000;;8.600000;8.160000;;;;;;
43196;SPS30;28816;49.852;18.282;2023-12-28T00:57:14;8.750000;;8.780000;8.070000;;;;;;
43196;SPS30;28816;49.852;18.282;2023-12-28T01:02:16;9.170000;;9.060000;8.500000;;;;;;
43196;SPS30;28816;49.852;18.282;2023-12-28T01:07:18;7.010000;;6.960000;6.500000;;;;;;
43196;SPS30;28816;49.852;18.282;2023-12-28T01:12:20;7.800000;;7.810000;7.300000;;;;;;
43196;SPS30;28816;49.852;18.282;2023-12-28T01:17:23;8.180000;;8.170000;7.720000;;;;;;
43196;SPS30;28816;49.852;18.282;2023-12-28T01:22:25;7.130000;;7.090000;6.580000;;;;;;
43196;SPS30;28816;49.852;18.282;2023-12-28T01:27:27;8.170000;;8.180000;7.630000;;;;;;
43196;SPS30;28816;49.852;18.282;2023-12-28T01:32:29;8.180000;;8.120000;7.610000;;;;;;
43196;SPS30;28816;49.852;18.282;2023-12-28T01:37:31;9.600000;;9.560000;9.030000;;;;;;
43196;SPS30;28816;49.852;18.282;2023-12-28T01:42:33;8.350000;;8.380000;7.890000;;;;;;
43196;SPS30;28816;49.852;18.282;2023-12-28T01:47:35;8.190000;;8.160000;7.640000;;;;;;
43196;SPS30;28816;49.852;18.282;2023-12-28T01:52:37;8.330000;;8.360000;7.810000;;;;;;
43196;SPS30;28816;49.852;18.282;2023-12-28T01:57:40;8.630000;;8.630000;7.930000;;;;;;
43196;SPS30;28816;49.852;18.282;2023-12-28T02:02:43;8.920000;;8.740000;8.320000;;;;;;
43196;SPS30;28816;49.852;18.282;2023-12-28T02:07:45;9.330000;;9.230000;8.790000;;;;;;
43196;SPS30;28816;49.852;18.282;2023-12-28T02:12:47;8.710000;;8.720000;8.160000;;;;;;
43196;SPS30;28816;49.852;18.282;2023-12-28T02:17:49;8.310000;;8.280000;7.740000;;;;;;
43196;SPS30;28816;49.852;18.282;2023-12-28T02:22:55;8.870000;;8.870000;8.280000;;;;;;
43196;SPS30;28816;49.852;18.282;2023-12-28T02:27:58;8.670000;;8.580000;7.950000;;;;;;
43196;SPS30;28816;49.852;18.282;2023-12-28T02:33:00;9.490000;;9.430000;8.900000;;;;;;
43196;SPS30;28816;49.852;18.282;2023-12-28T02:38:07;8.680000;;8.610000;8.140000;;;;;;
43196;SPS30;28816;49.852;18.282;2023-12-28T02:43:09;9.150000;;9.120000;8.570000;;;;;;
43196;SPS30;28816;49.852;18.282;2023-12-28T02:48:12;9.020000;;9.020000;8.510000;;;;;;
43196;SPS30;28816;49.852;18.282;2023-12-28T02:53:13;9.960000;;9.910000;9.320000;;;;;;
43196;SPS30;28816;49.852;18.282;2023-12-28T02:58:15;9.290000;;9.300000;8.790000;;;;;;
43196;SPS30;28816;49.852;18.282;2023-12-28T03:03:18;9.190000;;9.130000;8.660000;;;;;;
43196;SPS30;28816;49.852;18.282;2023-12-28T03:08:20;9.660000;;9.600000;9.000000;;;;;;
43196;SPS30;28816;49.852;18.282;2023-12-28T03:13:22;8.960000;;8.820000;8.470000;;;;;;
43196;SPS30;28816;49.852;18.282;2023-12-28T03:18:24;9.450000;;9.380000;8.850000;;;;;;
43196;SPS30;28816;49.852;18.282;2023-12-28T03:23:26;9.600000;;9.500000;8.780000;;;;;;
43196;SPS30;28816;49.852;18.282;2023-12-28T03:28:28;9.730000;;9.730000;9.130000;;;;;;
43196;SPS30;28816;49.852;18.282;2023-12-28T03:33:30;9.520000;;9.530000;8.960000;;;;;;
43196;SPS30;28816;49.852;18.282;2023-12-28T03:38:32;9.840000;;9.720000;9.290000;;;;;;
43196;SPS30;28816;49.852;18.282;2023-12-28T03:43:34;9.490000;;9.410000;9.020000;;;;;;
43196;SPS30;28816;49.852;18.282;2023-12-28T03:48:36;9.710000;;9.660000;9.100000;;;;;;
43196;SPS30;28816;49.852;18.282;2023-12-28T03:53:38;9.160000;;9.110000;8.570000;;;;;;
43196;SPS30;28816;49.852;18.282;2023-12-28T03:58:40;10.830000;;10.840000;10.190000;;;;;;
43196;SPS30;28816;49.852;18.282;2023-12-28T04:03:42;10.440000;;10.340000;9.750000;;;;;;
43196;SPS30;28816;49.852;18.282;2023-12-28T04:08:45;11.210000;;11.130000;10.280000;;;;;;
43196;SPS30;28816;49.852;18.282;2023-12-28T04:13:47;11.300000;;11.210000;10.390000;;;;;;
43196;SPS30;28816;49.852;18.282;2023-12-28T04:18:49;11.000000;;10.820000;10.200000;;;;;;
43196;SPS30;28816;49.852;18.282;2023-12-28T04:23:51;11.090000;;10.960000;10.300000;;;;;;
43196;SPS30;28816;49.852;18.282;2023-12-28T04:28:53;11.500000;;11.350000;10.740000;;;;;;
43196;SPS30;28816;49.852;18.282;2023-12-28T04:33:56;11.850000;;11.760000;11.220000;;;;;;
43196;SPS30;28816;49.852;18.282;2023-12-28T04:38:57;11.540000;;11.440000;10.810000;;;;;;
43196;SPS30;28816;49.852;18.282;2023-12-28T04:44:00;12.970000;;13.010000;12.250000;;;;;;
43196;SPS30;28816;49.852;18.282;2023-12-28T04:49:01;11.960000;;11.970000;11.250000;;;;;;
43196;SPS30;28816;49.852;18.282;2023-12-28T04:54:03;12.400000;;12.190000;11.680000;;;;;;
43196;SPS30;28816;49.852;18.282;2023-12-28T04:59:05;12.530000;;12.480000;11.830000;;;;;;
43196;SPS30;28816;49.852;18.282;2023-12-28T05:04:08;12.900000;;12.840000;12.200000;;;;;;
43196;SPS30;28816;49.852;18.282;2023-12-28T05:09:10;13.790000;;13.750000;13.060000;;;;;;
43196;SPS30;28816;49.852;18.282;2023-12-28T05:14:13;13.470000;;13.360000;12.580000;;;;;;
43196;SPS30;28816;49.852;18.282;2023-12-28T05:19:15;12.870000;;12.800000;12.070000;;;;;;
43196;SPS30;28816;49.852;18.282;2023-12-28T05:24:17;13.160000;;13.070000;12.410000;;;;;;
43196;SPS30;28816;49.852;18.282;2023-12-28T05:29:19;13.590000;;13.530000;12.800000;;;;;;
43196;SPS30;28816;49.852;18.282;2023-12-28T05:34:21;12.650000;;12.490000;11.910000;;;;;;
43196;SPS30;28816;49.852;18.282;2023-12-28T05:39:23;13.620000;;13.590000;12.800000;;;;;;
43196;SPS30;28816;49.852;18.282;2023-12-28T05:44:25;13.070000;;13.040000;12.080000;;;;;;
43196;SPS30;28816;49.852;18.282;2023-12-28T05:49:27;13.390000;;13.320000;12.400000;;;;;;
43196;SPS30;28816;49.852;18.282;2023-12-28T05:54:29;13.690000;;13.670000;12.690000;;;;;;
43196;SPS30;28816;49.852;18.282;2023-12-28T05:59:31;12.900000;;12.800000;12.210000;;;;;;
43196;SPS30;28816;49.852;18.282;2023-12-28T06:04:36;12.070000;;11.950000;11.240000;;;;;;
43196;SPS30;28816;49.852;18.282;2023-12-28T06:09:39;13.370000;;13.280000;12.310000;;;;;;
43196;SPS30;28816;49.852;18.282;2023-12-28T06:14:41;12.110000;;11.900000;11.090000;;;;;;
43196;SPS30;28816;49.852;18.282;2023-12-28T06:19:42;12.160000;;12.080000;11.340000;;;;;;
43196;SPS30;28816;49.852;18.282;2023-12-28T06:24:45;13.210000;;13.190000;12.320000;;;;;;
43196;SPS30;28816;49.852;18.282;2023-12-28T06:29:47;12.180000;;12.190000;11.500000;;;;;;
43196;SPS30;28816;49.852;18.282;2023-12-28T06:34:49;12.760000;;12.740000;11.900000;;;;;;
43196;SPS30;28816;49.852;18.282;2023-12-28T06:39:51;13.680000;;13.720000;12.680000;;;;;;
43196;SPS30;28816;49.852;18.282;2023-12-28T06:44:53;13.090000;;12.990000;12.260000;;;;;;
43196;SPS30;28816;49.852;18.282;2023-12-28T06:49:55;12.800000;;12.790000;12.110000;;;;;;
43196;SPS30;28816;49.852;18.282;2023-12-28T06:54:57;13.070000;;13.030000;12.410000;;;;;;
43196;SPS30;28816;49.852;18.282;2023-12-28T06:59:59;14.380000;;14.290000;13.510000;;;;;;
43196;SPS30;28816;49.852;18.282;2023-12-28T07:05:00;13.240000;;13.090000;12.370000;;;;;;
43196;SPS30;28816;49.852;18.282;2023-12-28T07:10:03;12.490000;;12.260000;11.650000;;;;;;
43196;SPS30;28816;49.852;18.282;2023-12-28T07:15:06;12.750000;;12.790000;12.010000;;;;;;
43196;SPS30;28816;49.852;18.282;2023-12-28T07:20:08;13.130000;;13.050000;12.270000;;;;;;
43196;SPS30;28816;49.852;18.282;2023-12-28T07:25:11;13.780000;;13.530000;12.700000;;;;;;
43196;SPS30;28816;49.852;18.282;2023-12-28T07:30:13;13.010000;;13.040000;12.110000;;;;;;
43196;SPS30;28816;49.852;18.282;2023-12-28T07:35:15;12.950000;;12.900000;12.190000;;;;;;
43196;SPS30;28816;49.852;18.282;2023-12-28T07:40:17;12.560000;;12.710000;11.790000;;;;;;
43196;SPS30;28816;49.852;18.282;2023-12-28T07:45:19;12.830000;;12.700000;11.950000;;;;;;
43196;SPS30;28816;49.852;18.282;2023-12-28T07:50:21;12.690000;;12.640000;12.010000;;;;;;
43196;SPS30;28816;49.852;18.282;2023-12-28T07:55:23;13.280000;;13.180000;12.470000;;;;;;
43196;SPS30;28816;49.852;18.282;2023-12-28T08:00:25;12.480000;;12.270000;11.480000;;;;;;
43196;SPS30;28816;49.852;18.282;2023-12-28T08:05:27;12.040000;;11.960000;11.090000;;;;;;
43196;SPS30;28816;49.852;18.282;2023-12-28T08:10:29;12.380000;;12.270000;11.560000;;;;;;
43196;SPS30;28816;49.852;18.282;2023-12-28T08:15:31;11.620000;;11.640000;10.960000;;;;;;
43196;SPS30;28816;49.852;18.282;2023-12-28T08:20:33;12.520000;;12.600000;11.770000;;;;;;
43196;SPS30;28816;49.852;18.282;2023-12-28T08:25:35;12.080000;;12.060000;11.260000;;;;;;
43196;SPS30;28816;49.852;18.282;2023-12-28T08:30:37;11.410000;;11.340000;10.720000;;;;;;
43196;SPS30;28816;49.852;18.282;2023-12-28T08:35:39;11.820000;;11.830000;10.970000;;;;;;
43196;SPS30;28816;49.852;18.282;2023-12-28T08:40:41;11.840000;;11.710000;10.920000;;;;;;
43196;SPS30;28816;49.852;18.282;2023-12-28T08:45:42;11.240000;;11.280000;10.550000;;;;;;
43196;SPS30;28816;49.852;18.282;2023-12-28T08:50:45;11.680000;;11.630000;10.700000;;;;;;
43196;SPS30;28816;49.852;18.282;2023-12-28T08:55:49;10.780000;;10.690000;10.230000;;;;;;
43196;SPS30;28816;49.852;18.282;2023-12-28T09:00:51;11.060000;;11.090000;10.420000;;;;;;
43196;SPS30;28816;49.852;18.282;2023-12-28T09:05:53;11.690000;;11.610000;11.000000;;;;;;
43196;SPS30;28816;49.852;18.282;2023-12-28T09:10:55;11.980000;;12.000000;11.320000;;;;;;
43196;SPS30;28816;49.852;18.282;2023-12-28T09:15:57;11.330000;;11.200000;10.820000;;;;;;
43196;SPS30;28816;49.852;18.282;2023-12-28T09:20:58;10.370000;;10.390000;9.780000;;;;;;
43196;SPS30;28816;49.852;18.282;2023-12-28T09:26:00;11.350000;;11.330000;10.680000;;;;;;
43196;SPS30;28816;49.852;18.282;2023-12-28T09:31:03;10.620000;;10.500000;9.920000;;;;;;
43196;SPS30;28816;49.852;18.282;2023-12-28T09:36:05;11.310000;;11.220000;10.620000;;;;;;
43196;SPS30;28816;49.852;18.282;2023-12-28T09:41:08;11.480000;;11.460000;10.760000;;;;;;
43196;SPS30;28816;49.852;18.282;2023-12-28T09:46:12;10.640000;;10.660000;10.050000;;;;;;
43196;SPS30;28816;49.852;18.282;2023-12-28T09:51:13;9.770000;;9.690000;9.140000;;;;;;
43196;SPS30;28816;49.852;18.282;2023-12-28T09:56:15;10.480000;;10.510000;9.920000;;;;;;
43196;SPS30;28816;49.852;18.282;2023-12-28T10:01:18;10.420000;;10.320000;9.720000;;;;;;
43196;SPS30;28816;49.852;18.282;2023-12-28T10:06:20;11.050000;;11.040000;10.470000;;;;;;
43196;SPS30;28816;49.852;18.282;2023-12-28T10:11:23;11.240000;;11.160000;10.610000;;;;;;
43196;SPS30;28816;49.852;18.282;2023-12-28T10:16:25;11.460000;;11.570000;10.730000;;;;;;
43196;SPS30;28816;49.852;18.282;2023-12-28T10:21:27;10.520000;;10.520000;9.900000;;;;;;
43196;SPS30;28816;49.852;18.282;2023-12-28T10:26:30;10.670000;;10.680000;10.080000;;;;;;
43196;SPS30;28816;49.852;18.282;2023-12-28T10:31:32;10.520000;;10.520000;9.940000;;;;;;
43196;SPS30;28816;49.852;18.282;2023-12-28T10:36:34;10.520000;;10.520000;9.930000;;;;;;
43196;SPS30;28816;49.852;18.282;2023-12-28T10:41:39;11.300000;;11.240000;10.690000;;;;;;
43196;SPS30;28816;49.852;18.282;2023-12-28T10:46:41;11.170000;;11.210000;10.510000;;;;;;
43196;SPS30;28816;49.852;18.282;2023-12-28T10:51:44;9.960000;;9.930000;9.470000;;;;;;
43196;SPS30;28816;49.852;18.282;2023-12-28T10:56:49;10.490000;;10.380000;9.880000;;;;;;
43196;SPS30;28816;49.852;18.282;2023-12-28T11:01:58;10.090000;;10.090000;9.550000;;;;;;
43196;SPS30;28816;49.852;18.282;2023-12-28T11:07:01;10.330000;;10.200000;9.770000;;;;;;
43196;SPS30;28816;49.852;18.282;2023-12-28T11:12:05;10.220000;;10.210000;9.690000;;;;;;
43196;SPS30;28816;49.852;18.282;2023-12-28T11:17:07;10.270000;;10.310000;9.640000;;;;;;
43196;SPS30;28816;49.852;18.282;2023-12-28T11:22:10;9.330000;;9.340000;8.820000;;;;;;
43196;SPS30;28816;49.852;18.282;2023-12-28T11:27:14;9.870000;;9.850000;9.370000;;;;;;
43196;SPS30;28816;49.852;18.282;2023-12-28T11:32:17;10.450000;;10.260000;9.790000;;;;;;
43196;SPS30;28816;49.852;18.282;2023-12-28T11:37:19;9.320000;;9.300000;8.820000;;;;;;
43196;SPS30;28816;49.852;18.282;2023-12-28T11:42:23;10.870000;;10.970000;10.150000;;;;;;
43196;SPS30;28816;49.852;18.282;2023-12-28T11:47:25;11.540000;;11.560000;10.880000;;;;;;
43196;SPS30;28816;49.852;18.282;2023-12-28T11:52:27;11.430000;;11.410000;10.860000;;;;;;
43196;SPS30;28816;49.852;18.282;2023-12-28T11:57:30;11.960000;;12.070000;11.190000;;;;;;
43196;SPS30;28816;49.852;18.282;2023-12-28T12:02:32;11.780000;;11.800000;11.160000;;;;;;
43196;SPS30;28816;49.852;18.282;2023-12-28T12:07:33;11.850000;;11.850000;11.170000;;;;;;
43196;SPS30;28816;49.852;18.282;2023-12-28T12:12:36;12.320000;;12.260000;11.720000;;;;;;
43196;SPS30;28816;49.852;18.282;2023-12-28T12:17:39;12.230000;;12.250000;11.550000;;;;;;
43196;SPS30;28816;49.852;18.282;2023-12-28T12:22:41;12.670000;;12.740000;11.880000;;;;;;
43196;SPS30;28816;49.852;18.282;2023-12-28T12:27:42;12.380000;;12.370000;11.700000;;;;;;
43196;SPS30;28816;49.852;18.282;2023-12-28T12:32:45;12.320000;;12.350000;11.670000;;;;;;
43196;SPS30;28816;49.852;18.282;2023-12-28T12:37:48;11.990000;;11.900000;11.240000;;;;;;
43196;SPS30;28816;49.852;18.282;2023-12-28T12:42:50;12.610000;;12.600000;11.960000;;;;;;
43196;SPS30;28816;49.852;18.282;2023-12-28T12:47:53;11.040000;;10.990000;10.440000;;;;;;
43196;SPS30;28816;49.852;18.282;2023-12-28T12:52:55;10.130000;;10.110000;9.650000;;;;;;
43196;SPS30;28816;49.852;18.282;2023-12-28T12:57:58;10.110000;;10.120000;9.610000;;;;;;
43196;SPS30;28816;49.852;18.282;2023-12-28T13:03:00;10.780000;;10.700000;10.070000;;;;;;
43196;SPS30;28816;49.852;18.282;2023-12-28T13:08:03;9.910000;;9.900000;9.390000;;;;;;
43196;SPS30;28816;49.852;18.282;2023-12-28T13:13:06;10.920000;;10.970000;10.230000;;;;;;
43196;SPS30;28816;49.852;18.282;2023-12-28T13:18:08;10.770000;;10.710000;10.230000;;;;;;
43196;SPS30;28816;49.852;18.282;2023-12-28T13:23:11;10.150000;;10.190000;9.450000;;;;;;
43196;SPS30;28816;49.852;18.282;2023-12-28T13:28:13;9.810000;;9.770000;9.180000;;;;;;
43196;SPS30;28816;49.852;18.282;2023-12-28T13:33:15;11.130000;;11.040000;10.480000;;;;;;
43196;SPS30;28816;49.852;18.282;2023-12-28T13:38:17;12.700000;;12.690000;11.770000;;;;;;
43196;SPS30;28816;49.852;18.282;2023-12-28T13:43:19;13.110000;;13.070000;12.360000;;;;;;
43196;SPS30;28816;49.852;18.282;2023-12-28T13:48:22;12.220000;;12.180000;11.470000;;;;;;
43196;SPS30;28816;49.852;18.282;2023-12-28T13:53:24;13.030000;;12.960000;12.170000;;;;;;
43196;SPS30;28816;49.852;18.282;2023-12-28T13:58:26;13.330000;;13.220000;12.430000;;;;;;
43196;SPS30;28816;49.852;18.282;2023-12-28T14:03:27;14.340000;;14.190000;13.360000;;;;;;
43196;SPS30;28816;49.852;18.282;2023-12-28T14:08:29;13.830000;;13.920000;12.900000;;;;;;
43196;SPS30;28816;49.852;18.282;2023-12-28T14:13:31;13.330000;;13.320000;12.620000;;;;;;
43196;SPS30;28816;49.852;18.282;2023-12-28T14:18:33;14.040000;;13.890000;13.210000;;;;;;
43196;SPS30;28816;49.852;18.282;2023-12-28T14:23:34;14.450000;;14.440000;13.460000;;;;;;
43196;SPS30;28816;49.852;18.282;2023-12-28T14:28:37;14.430000;;14.410000;13.700000;;;;;;
43196;SPS30;28816;49.852;18.282;2023-12-28T14:33:40;15.640000;;15.740000;14.650000;;;;;;
43196;SPS30;28816;49.852;18.282;2023-12-28T14:38:42;16.220000;;16.250000;15.210000;;;;;;
43196;SPS30;28816;49.852;18.282;2023-12-28T14:43:45;16.470000;;16.370000;15.480000;;;;;;
43196;SPS30;28816;49.852;18.282;2023-12-28T14:48:48;15.870000;;15.860000;15.020000;;;;;;
43196;SPS30;28816;49.852;18.282;2023-12-28T14:53:50;17.480000;;17.400000;16.030000;;;;;;
43196;SPS30;28816;49.852;18.282;2023-12-28T14:58:53;16.540000;;16.400000;15.530000;;;;;;
43196;SPS30;28816;49.852;18.282;2023-12-28T15:03:54;17.570000;;17.430000;16.260000;;;;;;
43196;SPS30;28816;49.852;18.282;2023-12-28T15:08:56;17.660000;;17.560000;16.430000;;;;;;
43196;SPS30;28816;49.852;18.282;2023-12-28T15:13:58;16.670000;;16.430000;15.540000;;;;;;
43196;SPS30;28816;49.852;18.282;2023-12-28T15:19:00;17.170000;;17.110000;16.300000;;;;;;
43196;SPS30;28816;49.852;18.282;2023-12-28T15:24:02;17.000000;;16.910000;15.930000;;;;;;
43196;SPS30;28816;49.852;18.282;2023-12-28T15:29:05;17.690000;;17.520000;16.680000;;;;;;
43196;SPS30;28816;49.852;18.282;2023-12-28T15:34:08;16.390000;;16.260000;15.260000;;;;;;
43196;SPS30;28816;49.852;18.282;2023-12-28T15:39:09;17.350000;;17.330000;16.220000;;;;;;
43196;SPS30;28816;49.852;18.282;2023-12-28T15:44:11;16.530000;;16.560000;15.430000;;;;;;
43196;SPS30;28816;49.852;18.282;2023-12-28T15:49:14;15.680000;;15.730000;14.820000;;;;;;
43196;SPS30;28816;49.852;18.282;2023-12-28T15:54:16;16.280000;;16.230000;15.150000;;;;;;
43196;SPS30;28816;49.852;18.282;2023-12-28T15:59:18;17.030000;;16.940000;16.120000;;;;;;
43196;SPS30;28816;49.852;18.282;2023-12-28T16:04:20;16.080000;;16.050000;15.140000;;;;;;
43196;SPS30;28816;49.852;18.282;2023-12-28T16:09:22;18.560000;;18.100000;16.850000;;;;;;
43196;SPS30;28816;49.852;18.282;2023-12-28T16:14:24;18.600000;;18.480000;17.380000;;;;;;
43196;SPS30;28816;49.852;18.282;2023-12-28T16:19:26;18.180000;;17.950000;16.820000;;;;;;
43196;SPS30;28816;49.852;18.282;2023-12-28T16:24:28;19.410000;;19.340000;18.430000;;;;;;
43196;SPS30;28816;49.852;18.282;2023-12-28T16:29:31;19.170000;;19.010000;17.910000;;;;;;
43196;SPS30;28816;49.852;18.282;2023-12-28T16:34:32;17.850000;;17.860000;16.880000;;;;;;
43196;SPS30;28816;49.852;18.282;2023-12-28T16:39:34;19.850000;;19.790000;18.730000;;;;;;
43196;SPS30;28816;49.852;18.282;2023-12-28T16:44:36;17.340000;;17.000000;16.160000;;;;;;
43196;SPS30;28816;49.852;18.282;2023-12-28T16:49:40;16.520000;;16.350000;15.520000;;;;;;
43196;SPS30;28816;49.852;18.282;2023-12-28T16:54:42;18.700000;;18.510000;17.510000;;;;;;
43196;SPS30;28816;49.852;18.282;2023-12-28T16:59:44;16.900000;;16.840000;15.860000;;;;;;
43196;SPS30;28816;49.852;18.282;2023-12-28T17:04:46;17.700000;;17.520000;16.700000;;;;;;
43196;SPS30;28816;49.852;18.282;2023-12-28T17:09:49;18.650000;;18.410000;17.080000;;;;;;
43196;SPS30;28816;49.852;18.282;2023-12-28T17:14:51;17.830000;;17.760000;16.840000;;;;;;
43196;SPS30;28816;49.852;18.282;2023-12-28T17:19:53;18.200000;;18.110000;17.110000;;;;;;
43196;SPS30;28816;49.852;18.282;2023-12-28T17:24:55;17.860000;;17.720000;16.720000;;;;;;
43196;SPS30;28816;49.852;18.282;2023-12-28T17:30:01;17.710000;;17.550000;16.270000;;;;;;
43196;SPS30;28816;49.852;18.282;2023-12-28T17:35:04;17.850000;;17.520000;16.270000;;;;;;
43196;SPS30;28816;49.852;18.282;2023-12-28T17:40:07;19.650000;;19.560000;18.290000;;;;;;
43196;SPS30;28816;49.852;18.282;2023-12-28T17:45:10;18.160000;;17.970000;16.760000;;;;;;
43196;SPS30;28816;49.852;18.282;2023-12-28T17:50:14;18.920000;;19.090000;17.770000;;;;;;
43196;SPS30;28816;49.852;18.282;2023-12-28T17:55:17;18.140000;;17.930000;16.980000;;;;;;
43196;SPS30;28816;49.852;18.282;2023-12-28T18:00:19;19.610000;;19.610000;18.280000;;;;;;
43196;SPS30;28816;49.852;18.282;2023-12-28T18:05:21;19.970000;;19.850000;18.400000;;;;;;
43196;SPS30;28816;49.852;18.282;2023-12-28T18:10:23;20.280000;;19.960000;18.350000;;;;;;
43196;SPS30;28816;49.852;18.282;2023-12-28T18:15:25;19.510000;;19.500000;18.250000;;;;;;
43196;SPS30;28816;49.852;18.282;2023-12-28T18:20:27;19.920000;;19.730000;18.410000;;;;;;
43196;SPS30;28816;49.852;18.282;2023-12-28T18:25:28;18.980000;;18.810000;17.930000;;;;;;
43196;SPS30;28816;49.852;18.282;2023-12-28T18:30:31;20.780000;;20.640000;19.120000;;;;;;
43196;SPS30;28816;49.852;18.282;2023-12-28T18:35:32;22.110000;;21.960000;20.580000;;;;;;
43196;SPS30;28816;49.852;18.282;2023-12-28T18:40:34;22.080000;;21.860000;20.360000;;;;;;
43196;SPS30;28816;49.852;18.282;2023-12-28T18:45:36;22.200000;;21.960000;20.400000;;;;;;
43196;SPS30;28816;49.852;18.282;2023-12-28T18:50:38;21.640000;;21.370000;19.890000;;;;;;
43196;SPS30;28816;49.852;18.282;2023-12-28T18:55:40;21.700000;;21.530000;20.320000;;;;;;
43196;SPS30;28816;49.852;18.282;2023-12-28T19:00:42;21.740000;;21.510000;19.910000;;;;;;
43196;SPS30;28816;49.852;18.282;2023-12-28T19:05:44;22.170000;;21.890000;20.570000;;;;;;
43196;SPS30;28816;49.852;18.282;2023-12-28T19:10:46;22.120000;;22.040000;20.700000;;;;;;
43196;SPS30;28816;49.852;18.282;2023-12-28T19:15:47;22.540000;;22.160000;20.960000;;;;;;
43196;SPS30;28816;49.852;18.282;2023-12-28T19:20:49;22.300000;;22.060000;20.630000;;;;;;
43196;SPS30;28816;49.852;18.282;2023-12-28T19:25:51;21.680000;;21.600000;20.200000;;;;;;
43196;SPS30;28816;49.852;18.282;2023-12-28T19:30:53;20.200000;;19.960000;18.860000;;;;;;
43196;SPS30;28816;49.852;18.282;2023-12-28T19:35:55;20.100000;;19.820000;18.710000;;;;;;
43196;SPS30;28816;49.852;18.282;2023-12-28T19:40:57;20.850000;;20.600000;19.460000;;;;;;
43196;SPS30;28816;49.852;18.282;2023-12-28T19:45:59;21.950000;;21.750000;20.450000;;;;;;
43196;SPS30;28816;49.852;18.282;2023-12-28T19:51:01;22.560000;;22.350000;20.990000;;;;;;
43196;SPS30;28816;49.852;18.282;2023-12-28T19:56:03;20.800000;;20.470000;19.200000;;;;;;
43196;SPS30;28816;49.852;18.282;2023-12-28T20:01:06;22.790000;;22.370000;20.700000;;;;;;
43196;SPS30;28816;49.852;18.282;2023-12-28T20:06:08;22.070000;;21.950000;20.500000;;;;;;
43196;SPS30;28816;49.852;18.282;2023-12-28T20:11:10;23.700000;;23.520000;21.900000;;;;;;
43196;SPS30;28816;49.852;18.282;2023-12-28T20:16:12;21.750000;;21.530000;20.310000;;;;;;
43196;SPS30;28816;49.852;18.282;2023-12-28T20:21:14;21.190000;;21.100000;19.680000;;;;;;
43196;SPS30;28816;49.852;18.282;2023-12-28T20:26:17;21.430000;;21.240000;19.900000;;;;;;
43196;SPS30;28816;49.852;18.282;2023-12-28T20:31:19;21.670000;;21.740000;20.390000;;;;;;
43196;SPS30;28816;49.852;18.282;2023-12-28T20:36:21;22.150000;;21.970000;20.520000;;;;;;
43196;SPS30;28816;49.852;18.282;2023-12-28T20:41:23;21.410000;;21.150000;20.210000;;;;;;
43196;SPS30;28816;49.852;18.282;2023-12-28T20:46:25;24.060000;;23.580000;21.940000;;;;;;
43196;SPS30;28816;49.852;18.282;2023-12-28T20:51:27;24.120000;;24.040000;22.370000;;;;;;
43196;SPS30;28816;49.852;18.282;2023-12-28T20:56:29;22.580000;;22.440000;20.830000;;;;;;
43196;SPS30;28816;49.852;18.282;2023-12-28T21:01:31;22.060000;;21.810000;20.510000;;;;;;
43196;SPS30;28816;49.852;18.282;2023-12-28T21:06:33;23.640000;;23.230000;21.530000;;;;;;
43196;SPS30;28816;49.852;18.282;2023-12-28T21:11:35;22.490000;;22.380000;20.790000;;;;;;
43196;SPS30;28816;49.852;18.282;2023-12-28T21:16:37;23.530000;;23.520000;22.070000;;;;;;
43196;SPS30;28816;49.852;18.282;2023-12-28T21:21:39;22.190000;;21.950000;20.520000;;;;;;
43196;SPS30;28816;49.852;18.282;2023-12-28T21:26:40;22.600000;;22.400000;21.070000;;;;;;
43196;SPS30;28816;49.852;18.282;2023-12-28T21:31:43;20.930000;;20.950000;19.760000;;;;;;
43196;SPS30;28816;49.852;18.282;2023-12-28T21:36:44;21.730000;;21.530000;20.300000;;;;;;
43196;SPS30;28816;49.852;18.282;2023-12-28T21:41:46;21.170000;;20.910000;19.550000;;;;;;
43196;SPS30;28816;49.852;18.282;2023-12-28T21:46:48;21.650000;;21.530000;20.340000;;;;;;
43196;SPS30;28816;49.852;18.282;2023-12-28T21:51:51;20.140000;;20.040000;18.710000;;;;;;
43196;SPS30;28816;49.852;18.282;2023-12-28T21:56:53;20.940000;;20.770000;19.350000;;;;;;
43196;SPS30;28816;49.852;18.282;2023-12-28T22:01:55;20.050000;;19.830000;18.420000;;;;;;
43196;SPS30;28816;49.852;18.282;2023-12-28T22:06:57;20.070000;;19.830000;18.440000;;;;;;
43196;SPS30;28816;49.852;18.282;2023-12-28T22:11:59;20.880000;;20.640000;19.470000;;;;;;
43196;SPS30;28816;49.852;18.282;2023-12-28T22:17:01;20.710000;;20.500000;19.300000;;;;;;
43196;SPS30;28816;49.852;18.282;2023-12-28T22:22:03;20.390000;;20.320000;19.030000;;;;;;
43196;SPS30;28816;49.852;18.282;2023-12-28T22:27:04;19.600000;;19.570000;18.310000;;;;;;
43196;SPS30;28816;49.852;18.282;2023-12-28T22:32:06;19.180000;;19.130000;17.750000;;;;;;
43196;SPS30;28816;49.852;18.282;2023-12-28T22:37:09;17.310000;;16.980000;15.910000;;;;;;